D/T METAR WX W/DIR W/SPE G/SPE TEMP DEWP
16/01/19 03:50 EGPA 160350Z AUTO 29025G35KT 9999 SCT021/// BKN026/// 06/03 Q0988 WNW (290°) 28.8mph 40.3mph 6°C 3°C
16/01/19 03:20 EGPA 160320Z AUTO 28027KT 9999 BKN020/// BKN027/// 06/04 Q0988 W (280°) 31.1mph 6°C 4°C
16/01/19 02:50 EGPA 160250Z AUTO 27027G37KT 9999 BKN022/// 06/03 Q0988 W (270°) 31.1mph 42.6mph 6°C 3°C
16/01/19 02:20 EGPA 160220Z AUTO 27029G43KT 9999 BKN022/// 07/03 Q0988 W (270°) 33.4mph 49.5mph 7°C 3°C
16/01/19 01:50 EGPA 160150Z AUTO 26023KT 9999 BKN021/// OVC027/// 07/04 Q0988 W (260°) 26.5mph 7°C 4°C
16/01/19 01:20 EGPA 160120Z AUTO 26024KT 9999 BKN023/// 07/04 Q0989 W (260°) 27.6mph 7°C 4°C
16/01/19 00:50 EGPA 160050Z AUTO 26024KT 9999 BKN022/// 07/04 Q0989 W (260°) 27.6mph 7°C 4°C
16/01/19 00:20 EGPA 160020Z AUTO 26024KT 9999 BKN023/// 08/05 Q0989 W (260°) 27.6mph 8°C 5°C
15/01/19 23:50 EGPA 152350Z AUTO 26025KT 9999 SCT020/// 08/05 Q0989 W (260°) 28.8mph 8°C 5°C
15/01/19 23:20 EGPA 152320Z AUTO 25024G40KT 9999 BKN018/// BKN025/// 09/07 Q0989 WSW (250°) 27.6mph 46.0mph 9°C 7°C
15/01/19 22:50 EGPA 152250Z AUTO 21015KT 9999 FEW019/// BKN023/// 08/07 Q0989 SSW (210°) 17.3mph 8°C 7°C
15/01/19 22:20 EGPA 152220Z AUTO 21015KT 9999 SCT005/// BKN012/// BKN016/// 08/07 Q0990 RERA SSW (210°) 17.3mph 8°C 7°C
15/01/19 21:50 EGPA 152150Z AUTO 20016KT 4600 -DZ BKN003/// OVC032/// 08/07 Q0991 RERA -DZ SSW (200°) 18.4mph 8°C 7°C
15/01/19 21:20 EGPA 152120Z AUTO 20015KT 4000 RA BKN004/// OVC014/// 07/07 Q0991 RA SSW (200°) 17.3mph 7°C 7°C
15/01/19 20:50 EGPA 152050Z 20014KT 3500 RA FEW005 BKN014 OVC034 07/07 Q0992 RA SSW (200°) 16.1mph 7°C 7°C
15/01/19 20:20 EGPA 152020Z 20012KT 7000 RA FEW005 BKN022 OVC034 07/07 Q0993 RA SSW (200°) 13.8mph 7°C 7°C
15/01/19 19:50 EGPA 151950Z 20010KT 7000 RA SCT005 BKN020 OVC033 07/07 Q0993 RA SSW (200°) 11.5mph 7°C 7°C
15/01/19 18:50 EGPA 151850Z 20007KT 7000 -RA FEW008 BKN019 OVC030 07/06 Q0995 -RA SSW (200°) 8.1mph 7°C 6°C
15/01/19 18:20 EGPA 151820Z 15008KT 9999 -RA FEW008 BKN019 OVC032 06/05 Q0996 REDZ -RA SSE (150°) 9.2mph 6°C 5°C
15/01/19 17:50 EGPA 151750Z 16004KT 8000 -RA DZ SCT006 BKN012 OVC022 05/05 Q0997 -RA DZ SSE (160°) 4.6mph 5°C 5°C
15/01/19 17:20 EGPA 151720Z 19004KT 7000 -RA DZ SCT008 BKN016 BKN030 05/05 Q0997 -RA DZ S (190°) 4.6mph 5°C 5°C
15/01/19 16:50 EGPA 151650Z 18003KT 9000 -RA DZ SCT006 BKN015 BKN035 05/05 Q0998 -RA DZ S (180°) 3.5mph 5°C 5°C
15/01/19 16:20 EGPA 151620Z 18002KT 5000 -RA DZ BR SCT006 BKN009 OVC015 05/05 Q0998 -RA DZ BR S (180°) 2.3mph 5°C 5°C
15/01/19 15:50 EGPA 151550Z VRB01KT 7000 -RA BKN010 BKN015 OVC020 05/05 Q0999 -RA N (0°) 1.2mph 5°C 5°C
15/01/19 15:20 EGPA 151520Z 23003KT 9999 -RA SCT007 BKN012 BKN020 05/05 Q0999 -RA SW (230°) 3.5mph 5°C 5°C
15/01/19 14:50 EGPA 151450Z 24005KT 8000 -RA SCT007 BKN010 BKN020 06/05 Q1000 -RA WSW (240°) 5.8mph 6°C 5°C
15/01/19 14:20 EGPA 151420Z 26005KT 8000 -RA SCT010 BKN018 BKN025 06/05 Q1000 -RA W (260°) 5.8mph 6°C 5°C
15/01/19 13:50 EGPA 151350Z 25007KT 9000 -RA FEW005 SCT015 BKN033 06/05 Q1001 -RA WSW (250°) 8.1mph 6°C 5°C
15/01/19 13:20 EGPA 151320Z 25011KT 9999 -RA FEW015 SCT028 BKN038 06/05 Q1001 -RA WSW (250°) 12.7mph 6°C 5°C
15/01/19 12:50 EGPA 151250Z 25009KT 8000 -RA FEW015 BKN035 06/05 Q1001 -RA WSW (250°) 10.4mph 6°C 5°C
15/01/19 12:20 EGPA 151220Z 26009KT 9999 -RA FEW020 BKN035 06/05 Q1002 -RA W (260°) 10.4mph 6°C 5°C
15/01/19 11:20 EGPA 151120Z 27009KT 9999 -RA FEW012 BKN035 06/04 Q1002 -RA W (270°) 10.4mph 6°C 4°C
15/01/19 10:50 EGPA 151050Z 29013KT 9999 -RA FEW015 BKN037 07/03 Q1003 -RA WNW (290°) 15.0mph 7°C 3°C
15/01/19 10:20 EGPA 151020Z 28010KT 9999 -RA FEW015 BKN032 07/03 Q1003 -RA W (280°) 11.5mph 7°C 3°C
15/01/19 09:50 EGPA 150950Z 27009KT 9999 FEW020 SCT032 07/03 Q1003 W (270°) 10.4mph 7°C 3°C
15/01/19 09:20 EGPA 150920Z 27006KT 9999 FEW020 SCT040 07/03 Q1003 W (270°) 6.9mph 7°C 3°C
15/01/19 08:50 EGPA 150850Z 29011KT 9999 BKN040 07/03 Q1003 WNW (290°) 12.7mph 7°C 3°C
15/01/19 07:50 EGPA 150750Z 29009KT 9999 SCT045 07/04 Q1002 WNW (290°) 10.4mph 7°C 4°C
15/01/19 07:20 EGPA 150720Z 30014KT 9999 FEW025 BKN045 07/04 Q1002 WNW (300°) 16.1mph 7°C 4°C
15/01/19 06:50 EGPA 150650Z 29012KT 9999 FEW025 BKN045 07/04 Q1002 WNW (290°) 13.8mph 7°C 4°C
15/01/19 06:20 EGPA 150620Z 29011KT 9999 FEW025 BKN045 07/04 Q1002 WNW (290°) 12.7mph 7°C 4°C
15/01/19 05:50 EGPA 150550Z AUTO 29013KT 9999 FEW033/// BKN042/// ///// Q1002 WNW (290°) 15.0mph 0°C 0°C
15/01/19 05:20 EGPA 150520Z AUTO 29017KT 9999 SCT035/// BKN047/// ///// Q1002 WNW (290°) 19.6mph 0°C 0°C
15/01/19 04:50 EGPA 150450Z AUTO 29013KT 9999 BKN045/// ///// Q1002 WNW (290°) 15.0mph 0°C 0°C
15/01/19 04:20 EGPA 150420Z AUTO 29013KT 9999 SCT043/// ///// Q1002 WNW (290°) 15.0mph 0°C 0°C
15/01/19 03:50 EGPA 150350Z AUTO 29016KT 9999 FEW041/// ///// Q1002 WNW (290°) 18.4mph 0°C 0°C
15/01/19 03:20 EGPA 150320Z AUTO 29021KT 9999 FEW009/// SCT014/// BKN032/// ///// Q1002 WNW (290°) 24.2mph 0°C 0°C
15/01/19 02:50 EGPA 150250Z AUTO 28022G35KT 9999 SCT005/// SCT024/// BKN031/// ///// Q1001 RERA W (280°) 25.3mph 40.3mph 0°C 0°C
15/01/19 02:20 EGPA 150220Z AUTO 27024G34KT 2200 +RA SCT004/// BKN007/// OVC032/// ///// Q1001 +RA W (270°) 27.6mph 39.1mph 0°C 0°C
15/01/19 01:50 EGPA 150150Z AUTO 26024KT 5000 -RA BKN006/// OVC014/// ///// Q1001 -RA W (260°) 27.6mph 0°C 0°C
15/01/19 01:20 EGPA 150120Z AUTO 25024KT 9999 BKN010/// OVC017/// ///// Q1002 WSW (250°) 27.6mph 0°C 0°C
15/01/19 00:50 EGPA 150050Z AUTO 25024KT 9999 OVC011/// ///// Q1002 WSW (250°) 27.6mph 0°C 0°C
15/01/19 00:20 EGPA 150020Z AUTO 24018G28KT 9999 BKN010/// OVC017/// 08/07 Q1002 WSW (240°) 20.7mph 32.2mph 8°C 7°C
14/01/19 23:50 EGPA 142350Z AUTO 23017KT 9999 -RA BKN010/// OVC023/// 08/07 Q1003 -RA SW (230°) 19.6mph 8°C 7°C
14/01/19 23:20 EGPA 142320Z 24018KT 6000 SHRA BKN007 OVC010 07/06 Q1004 SHRA WSW (240°) 20.7mph 7°C 6°C
14/01/19 22:50 EGPA 142250Z 23014KT 5000 SHRA SCT007 BKN010 OVC040 07/06 Q1004 SHRA SW (230°) 16.1mph 7°C 6°C
14/01/19 22:20 EGPA 142220Z AUTO 21013KT 4400 RA BKN013/// OVC029/// ///// Q1005 RA SSW (210°) 15.0mph 0°C 0°C
14/01/19 21:50 EGPA 142150Z AUTO 21012KT 6000 -RA BKN004/// BKN013/// OVC032/// ///// Q1005 RERA -RA SSW (210°) 13.8mph 0°C 0°C
14/01/19 21:20 EGPA 142120Z AUTO 21012KT 4800 -DZ BKN004/// BKN010/// OVC016/// ///// Q1006 -DZ SSW (210°) 13.8mph 0°C 0°C
14/01/19 20:20 EGPA 142020Z AUTO 24008KT 9999 OVC004/// ///// Q1007 REDZ WSW (240°) 9.2mph 0°C 0°C
14/01/19 19:50 EGPA 141950Z AUTO 25009KT 5000 -RA FEW006/// BKN012/// BKN018/// 06/05 Q1008 -RA WSW (250°) 10.4mph 6°C 5°C
14/01/19 19:20 EGPA 141920Z 25008KT 8000 SHRA DZ SCT007 BKN015 BKN025 06/05 Q1009 SHRA DZ WSW (250°) 9.2mph 6°C 5°C
14/01/19 18:50 EGPA 141850Z 27008KT 9999 -SHRA SCT015 SCT025 BKN035 05/03 Q1009 -SHRA W (270°) 9.2mph 5°C 3°C
14/01/19 18:20 EGPA 141820Z 26010KT 9999 -SHRA SCT015 SCT025 BKN035 05/03 Q1010 -SHRA W (260°) 11.5mph 5°C 3°C
14/01/19 17:50 EGPA 141750Z 28010KT 9999 -SHRA SCT018 SCT025 BKN030 05/03 Q1010 -SHRA W (280°) 11.5mph 5°C 3°C
14/01/19 17:20 EGPA 141720Z 29010KT 9999 -SHRA FEW018 SCT025 BKN032 05/03 Q1010 -SHRA WNW (290°) 11.5mph 5°C 3°C
14/01/19 16:50 EGPA 141650Z 29010KT 9999 VCSH FEW025 SCT032 BKN043 05/03 Q1010 VCSH WNW (290°) 11.5mph 5°C 3°C
14/01/19 16:20 EGPA 141620Z 28009KT 9999 VCSH FEW028 SCT040 BKN049 05/03 Q1010 VCSH W (280°) 10.4mph 5°C 3°C
14/01/19 15:50 EGPA 141550Z 28010KT 9999 VCSH FEW028 SCT040 05/02 Q1010 VCSH W (280°) 11.5mph 5°C 2°C
14/01/19 15:20 EGPA 141520Z 30014KT 9999 VCSH FEW010 SCT033 BKN047 05/02 Q1011 VCSH WNW (300°) 16.1mph 5°C 2°C
14/01/19 14:50 EGPA 141450Z 29012KT 9999 VCSH FEW010 SCT030 BKN047 05/02 Q1011 VCSH WNW (290°) 13.8mph 5°C 2°C
14/01/19 13:50 EGPA 141350Z 27009KT 9999 VCSH FEW010 SCT030 BKN047 03/02 Q1011 VCSH W (270°) 10.4mph 3°C 2°C
14/01/19 13:20 EGPA 141320Z 26011KT 9999 VCSH SCT010 SCT023 BKN048 04/01 Q1011 VCSH W (260°) 12.7mph 4°C 1°C
14/01/19 12:50 EGPA 141250Z 25017KT 9999 BKN010 BKN045 04/01 Q1012 RESHRA RESN SN WSW (250°) 19.6mph 4°C 1°C
14/01/19 12:20 EGPA 141220Z 24017KT 9000 SHRASN BKN010 BKN045 04/01 Q1012 SHRA SHSN WSW (240°) 19.6mph 4°C 1°C
14/01/19 11:50 EGPA 141150Z 22015KT 9999 VCSH FEW018 SCT032 BKN045 04/01 Q1012 VCSH SW (220°) 17.3mph 4°C 1°C
14/01/19 11:20 EGPA 141120Z 23013KT 9999 VCSH FEW018 SCT032 BKN040 04/01 Q1013 VCSH SW (230°) 15.0mph 4°C 1°C
14/01/19 10:50 EGPA 141050Z 24013KT 9999 -SHRA SCT018 SCT032 BKN049 04/01 Q1013 -SHRA WSW (240°) 15.0mph 4°C 1°C
14/01/19 10:20 EGPA 141020Z 23006KT 9999 VCSH FEW025 SCT032 BKN049 02/M01 Q1014 VCSH SW (230°) 6.9mph 2°C -1°C
14/01/19 09:50 EGPA 140950Z 23004KT 9999 VCSH FEW025 SCT032 BKN045 02/M01 Q1014 VCSH SW (230°) 4.6mph 2°C -1°C
14/01/19 09:20 EGPA 140920Z 24005KT 9999 FEW020 BKN045 01/M02 Q1014 WSW (240°) 5.8mph 1°C -2°C
14/01/19 08:50 EGPA 140850Z 24004KT 9999 FEW020 SCT030 01/M02 Q1014 WSW (240°) 4.6mph 1°C -2°C
14/01/19 08:20 EGPA 140820Z 25005KT 9999 SCT030 SCT045 00/M02 Q1014 WSW (250°) 5.8mph 0°C -2°C
14/01/19 07:50 EGPA 140750Z 28007KT 9999 SCT030 SCT045 01/M02 Q1014 W (280°) 8.1mph 1°C -2°C
14/01/19 06:50 EGPA 140650Z 30007KT 9999 SCT030 SCT045 01/M01 Q1014 WNW (300°) 8.1mph 1°C -1°C
14/01/19 06:20 EGPA 140620Z 30016KT 9999 SCT025 02/M01 Q1015 WNW (300°) 18.4mph 2°C -1°C
14/01/19 05:50 EGPA 140550Z AUTO 32011KT 9999 BKN043/// ///// Q1014 NW (320°) 12.7mph 0°C 0°C
14/01/19 05:20 EGPA 140520Z AUTO 31011KT 9999 BKN044/// ///// Q1014 NW (310°) 12.7mph 0°C 0°C
14/01/19 04:50 EGPA 140450Z AUTO 33015KT 9999 NCD ///// Q1014 NNW (330°) 17.3mph 0°C 0°C
14/01/19 04:20 EGPA 140420Z AUTO 33021KT 9999 SCT033/// ///// Q1014 NNW (330°) 24.2mph 0°C 0°C
14/01/19 03:50 EGPA 140350Z AUTO 33019KT 9999 FEW030/// BKN045/// ///// Q1014 NNW (330°) 21.9mph 0°C 0°C
14/01/19 03:20 EGPA 140320Z AUTO 33016KT 9999 SCT036/// OVC048/// ///// Q1014 NNW (330°) 18.4mph 0°C 0°C
14/01/19 02:50 EGPA 140250Z AUTO 33019KT 9999 FEW037/// SCT043/// ///// Q1013 NNW (330°) 21.9mph 0°C 0°C
14/01/19 02:20 EGPA 140220Z AUTO 33016KT 9999 FEW012/// SCT020/// BKN032/// ///// Q1014 NNW (330°) 18.4mph 0°C 0°C
14/01/19 01:50 EGPA 140150Z AUTO 32017KT 9999 FEW006/// SCT016/// BKN025/// ///// Q1013 NW (320°) 19.6mph 0°C 0°C
14/01/19 01:20 EGPA 140120Z AUTO 32018KT 9999 FEW020/// SCT033/// BKN045/// ///// Q1013 NW (320°) 20.7mph 0°C 0°C
14/01/19 00:50 EGPA 140050Z AUTO 33017G28KT 9999 FEW024/// SCT033/// BKN040/// ///// Q1012 NNW (330°) 19.6mph 32.2mph 0°C 0°C
14/01/19 00:20 EGPA 140020Z AUTO 33019KT 9999 FEW016/// SCT026/// BKN033/// ///// Q1012 RESHGR NNW (330°) 21.9mph 0°C 0°C
13/01/19 23:50 EGPA 132350Z AUTO 34018KT 9999 FEW022/// SCT030/// BKN039/// ///// Q1012 NNW (340°) 20.7mph 0°C 0°C
13/01/19 23:20 EGPA 132320Z AUTO 34018G28KT 9999 SCT038/// BKN049/// ///// Q1011 NNW (340°) 20.7mph 32.2mph 0°C 0°C
13/01/19 22:20 EGPA 132220Z AUTO 36015KT 9999 FEW032/// SCT038/// ///// Q1010 N (360°) 17.3mph 0°C 0°C
13/01/19 21:50 EGPA 132150Z AUTO 36016KT 9999 FEW028/// ///// Q1010 N (360°) 18.4mph 0°C 0°C
13/01/19 21:20 EGPA 132120Z AUTO 36018KT 9999 FEW022/// SCT029/// BKN035/// 03/00 Q1010 N (360°) 20.7mph 3°C 0°C
13/01/19 20:50 EGPA 132050Z AUTO 02017KT 9999 -RA FEW013/// SCT020/// BKN026/// ///// Q1009 -RA NNE (20°) 19.6mph 0°C 0°C
13/01/19 20:20 EGPA 132020Z 03018KT 9999 VCSH FEW010CB SCT020 BKN025 02/00 Q1009 VCSH NNE (30°) 20.7mph 2°C 0°C
13/01/19 19:20 EGPA 131920Z 03016KT 9999 VCSH SCT020CB BKN028 03/00 Q1007 VCSH NNE (30°) 18.4mph 3°C 0°C
13/01/19 18:50 EGPA 131850Z 03020KT 9999 -SHRA FEW007 SCT012CB BKN028 03/01 Q1006 -SHRA NNE (30°) 23.0mph 3°C 1°C
13/01/19 17:50 EGPA 131750Z 05016KT 9999 VCSH FEW010 FEW016CB BKN034 04/01 Q1004 VCSH NE (50°) 18.4mph 4°C 1°C
13/01/19 17:20 EGPA 131720Z 05017KT 9999 -SHRA FEW007 SCT012CB BKN030 03/01 Q1003 RESHRA -SHRA NE (50°) 19.6mph 3°C 1°C
13/01/19 16:50 EGPA 131650Z 05015KT 9999 7000N SHRA FEW007 SCT011CB BKN025 03/02 Q1002 SHRA NE (50°) 17.3mph 3°C 2°C
13/01/19 16:20 EGPA 131620Z 05014KT 9999 6000N SHRA SCT007 SCT010CB BKN019 05/04 Q1001 SHRA NE (50°) 16.1mph 5°C 4°C
13/01/19 15:50 EGPA 131550Z 07007KT 9999 7000N VCSH FEW006 FEW010CB BKN019 05/04 Q1000 VCSH ENE (70°) 8.1mph 5°C 4°C
13/01/19 14:50 EGPA 131450Z 02014KT 9999 VCSH FEW010CB SCT017 06/05 Q0998 VCSH NNE (20°) 16.1mph 6°C 5°C
13/01/19 14:20 EGPA 131420Z 33020G30KT 9999 6000N -SHRA FEW005 SCT011CB BKN020 06/04 Q0998 RESHRA -SHRA NNW (330°) 23.0mph 34.5mph 6°C 4°C
13/01/19 13:50 EGPA 131350Z 32014KT 9999 VCSH SCT012CB SCT025 06/04 Q0997 RESHRA VCSH NW (320°) 16.1mph 6°C 4°C
13/01/19 12:50 EGPA 131250Z 31016KT 9999 VCSH FEW012CB SCT020 SCT030 BKN040 07/05 Q0997 RESHRA VCSH NW (310°) 18.4mph 7°C 5°C
13/01/19 12:20 EGPA 131220Z 31020KT 9999 SHRA FEW018CB SCT025 BKN035 07/05 Q0997 RESN SHRA NW (310°) 23.0mph 7°C 5°C
13/01/19 11:50 EGPA 131150Z 30024G34KT 9999 VCSH FEW018CB SCT025 BKN037 07/05 Q0997 VCSH WNW (300°) 27.6mph 39.1mph 7°C 5°C
13/01/19 10:50 EGPA 131050Z 30021G31KT 9999 VCSH FEW018 SCT029 BKN045 07/05 Q0996 VCSH WNW (300°) 24.2mph 35.7mph 7°C 5°C
13/01/19 10:20 EGPA 131020Z 31021KT 9999 VCSH FEW018 SCT023 BKN030 07/05 Q0996 VCSH NW (310°) 24.2mph 7°C 5°C
13/01/19 09:50 EGPA 130950Z 31020KT 9999 VCSH SCT012 SCT018 BKN035 07/05 Q0996 RESHRA VCSH NW (310°) 23.0mph 7°C 5°C
13/01/19 09:20 EGPA 130920Z 31020KT 9999 VCSH SCT017 SCT025 07/06 Q0996 VCSH NW (310°) 23.0mph 7°C 6°C
13/01/19 08:50 EGPA 130850Z 30020KT 9999 VCSH FEW022 SCT035 BKN049 07/05 Q0996 RESHRA VCSH WNW (300°) 23.0mph 7°C 5°C
13/01/19 08:20 EGPA 130820Z 30022KT 9999 SHRA FEW025 SCT035 BKN045 07/04 Q0996 SHRA WNW (300°) 25.3mph 7°C 4°C
13/01/19 07:50 EGPA 130750Z 29023G37KT 9999 VCSH SCT017 SCT025 BKN040 07/05 Q0995 VCSH WNW (290°) 26.5mph 42.6mph 7°C 5°C
13/01/19 07:20 EGPA 130720Z AUTO 30023KT 9999 FEW005/// SCT016/// BKN030/// ///// Q0995 RERA WNW (300°) 26.5mph 0°C 0°C
13/01/19 06:50 EGPA 130650Z AUTO 29024KT 9999 SCT020/// SCT032/// ///// Q0995 WNW (290°) 27.6mph 0°C 0°C
13/01/19 06:20 EGPA 130620Z AUTO 29026G38KT 9999 FEW020/// SCT031/// BKN048/// ///// Q0995 WNW (290°) 29.9mph 43.7mph 0°C 0°C
13/01/19 05:50 EGPA 130550Z AUTO 29026KT 9999 FEW015/// SCT034/// BKN047/// ///// Q0996 WNW (290°) 29.9mph 0°C 0°C
13/01/19 05:20 EGPA 130520Z AUTO 28022KT 9999 FEW021/// SCT027/// BKN031/// ///// Q0996 W (280°) 25.3mph 0°C 0°C
13/01/19 04:50 EGPA 130450Z AUTO 29027KT 9999 FEW029/// ///// Q0996 WNW (290°) 31.1mph 0°C 0°C
13/01/19 04:20 EGPA 130420Z AUTO 28026G36KT 3300 RA FEW008/// BKN014/// BKN022/// ///// Q0997 RERA RA W (280°) 29.9mph 41.4mph 0°C 0°C
13/01/19 03:50 EGPA 130350Z AUTO 28026KT 9999 FEW010/// BKN015/// BKN020/// ///// Q0997 W (280°) 29.9mph 0°C 0°C
13/01/19 03:20 EGPA 130320Z AUTO 28027G38KT 9999 FEW007/// BKN011/// 09/08 Q0997 W (280°) 31.1mph 43.7mph 9°C 8°C
13/01/19 02:50 EGPA 130250Z AUTO 29027G37KT 9999 FEW005/// SCT008/// BKN011/// 09/08 Q0998 RERA WNW (290°) 31.1mph 42.6mph 9°C 8°C
13/01/19 02:20 EGPA 130220Z AUTO 28024G34KT 9000 -RA BKN004/// OVC022/// 09/09 Q0998 RERA -RA W (280°) 27.6mph 39.1mph 9°C 9°C
13/01/19 01:50 EGPA 130150Z AUTO 28022KT 5000 -RA OVC003/// 09/09 Q0998 RERA REDZ -RA W (280°) 25.3mph 9°C 9°C
13/01/19 01:20 EGPA 130120Z AUTO 29027G38KT 5000 -RA OVC004/// 09/09 Q0999 RERA -RA WNW (290°) 31.1mph 43.7mph 9°C 9°C
13/01/19 00:50 EGPA 130050Z AUTO 29025KT 4500 -DZ OVC003/// 09/09 Q0999 RERA REDZ -DZ WNW (290°) 28.8mph 9°C 9°C
13/01/19 00:20 EGPA 130020Z AUTO 28024KT 5000 -RA BKN003/// OVC009/// 09/09 Q0999 RERA REDZ -RA W (280°) 27.6mph 9°C 9°C
12/01/19 23:50 EGPA 122350Z AUTO 28026KT 3600 RA BKN004/// OVC011/// 09/09 Q0999 RA W (280°) 29.9mph 9°C 9°C
12/01/19 23:20 EGPA 122320Z AUTO 28027KT 6000 -RA BKN007/// 09/09 Q0999 -RA W (280°) 31.1mph 9°C 9°C
12/01/19 22:50 EGPA 122250Z 28026G36KT 3500 RADZ BKN004 09/09 Q1000 RA DZ W (280°) 29.9mph 41.4mph 9°C 9°C
12/01/19 22:20 EGPA 122220Z 28027KT 7000 -RA BKN005 BKN010 09/09 Q1000 -RA W (280°) 31.1mph 9°C 9°C